createdAt,value
2023-03-25T00:02:23.214Z,1.07
2023-03-25T00:04:51.792Z,1.10
2023-03-25T00:07:21.161Z,1.00
2023-03-25T00:09:48.939Z,1.03
2023-03-25T00:12:18.869Z,1.17
2023-03-25T00:14:54.162Z,0.90
2023-03-25T00:17:22.122Z,0.90
2023-03-25T00:19:51.886Z,0.87
2023-03-25T00:22:20.883Z,1.77
2023-03-25T00:24:48.344Z,0.90
2023-03-25T00:27:17.593Z,1.20
2023-03-25T00:29:45.212Z,1.20
2023-03-25T00:32:12.915Z,1.10
2023-03-25T00:34:41.835Z,1.50
2023-03-25T00:37:10.009Z,1.10
2023-03-25T00:39:38.844Z,1.50
2023-03-25T00:42:06.323Z,1.20
2023-03-25T00:44:33.745Z,1.20
2023-03-25T00:47:01.715Z,1.10
2023-03-25T00:49:29.434Z,1.67
2023-03-25T00:51:57.358Z,1.23
2023-03-25T00:54:25.149Z,1.10
2023-03-25T00:56:54.544Z,1.00
2023-03-25T00:59:22.092Z,1.00
2023-03-25T01:01:53.100Z,0.87
2023-03-25T01:04:20.598Z,0.93
2023-03-25T01:06:51.660Z,1.03
2023-03-25T01:09:20.292Z,0.80
2023-03-25T01:11:48.239Z,0.77
2023-03-25T01:14:17.915Z,0.80
2023-03-25T01:16:45.630Z,0.80
2023-03-25T01:19:13.411Z,0.87
2023-03-25T01:21:41.020Z,0.90
2023-03-25T01:24:09.148Z,0.80
2023-03-25T01:26:37.421Z,0.80
2023-03-25T01:29:06.099Z,0.87
2023-03-25T01:31:35.512Z,0.90
2023-03-25T01:34:03.105Z,0.77
2023-03-25T01:36:30.766Z,0.80
2023-03-25T01:38:59.342Z,0.80
2023-03-25T01:41:35.710Z,0.80
2023-03-25T01:44:07.745Z,0.80
2023-03-25T01:46:37.379Z,1.00
2023-03-25T01:49:07.750Z,1.10
2023-03-25T01:51:36.767Z,1.20
2023-03-25T01:54:04.898Z,0.80
2023-03-25T01:56:34.483Z,0.70
2023-03-25T01:59:03.863Z,1.10
2023-03-25T02:01:32.225Z,0.80
2023-03-25T02:04:03.190Z,0.90
2023-03-25T02:06:33.350Z,0.70
2023-03-25T02:09:04.926Z,1.00
2023-03-25T02:11:32.353Z,1.07
2023-03-25T02:14:01.642Z,0.73
2023-03-25T02:16:32.017Z,0.90
2023-03-25T02:19:10.590Z,0.83
2023-03-25T02:21:50.121Z,1.00
2023-03-25T02:24:36.286Z,0.80
2023-03-25T02:27:27.169Z,0.90
2023-03-25T02:29:58.919Z,0.80
2023-03-25T02:32:38.004Z,1.13
2023-03-25T02:35:15.374Z,0.90
2023-03-25T02:37:59.121Z,0.90
2023-03-25T02:40:29.247Z,0.90
2023-03-25T02:42:59.448Z,0.90
2023-03-25T02:45:29.922Z,0.80
2023-03-25T02:48:00.920Z,1.00
2023-03-25T02:50:30.213Z,0.90
2023-03-25T02:53:00.151Z,0.80
2023-03-25T02:55:31.514Z,0.90
2023-03-25T02:57:59.176Z,0.90
2023-03-25T03:00:28.711Z,0.90
2023-03-25T03:02:59.939Z,0.80
2023-03-25T03:05:29.696Z,0.73
2023-03-25T03:08:03.762Z,0.77
2023-03-25T03:10:36.099Z,0.77
2023-03-25T03:13:09.426Z,0.93
2023-03-25T03:15:40.548Z,1.20
2023-03-25T03:18:14.345Z,0.90
2023-03-25T03:20:45.074Z,0.90
2023-03-25T03:23:15.820Z,1.00
2023-03-25T03:25:49.121Z,1.00
2023-03-25T03:28:22.445Z,0.70
2023-03-25T03:30:51.901Z,0.93
2023-03-25T03:33:21.815Z,0.80
2023-03-25T03:35:51.768Z,0.70
2023-03-25T03:38:21.798Z,0.70
2023-03-25T03:40:52.194Z,0.60
2023-03-25T03:43:22.136Z,0.70
2023-03-25T03:45:52.544Z,0.83
2023-03-25T03:48:22.077Z,0.60
2023-03-25T03:50:52.702Z,0.60
2023-03-25T03:53:22.659Z,0.60
2023-03-25T03:55:53.510Z,0.60
2023-03-25T03:58:25.375Z,0.53
2023-03-25T04:00:57.485Z,0.60
2023-03-25T04:03:25.885Z,0.77
2023-03-25T04:05:54.397Z,0.50
2023-03-25T04:08:26.647Z,0.60
2023-03-25T04:10:58.977Z,0.70
2023-03-25T04:13:29.519Z,0.80
2023-03-25T04:16:00.037Z,0.70
2023-03-25T04:18:28.476Z,0.63
2023-03-25T04:20:55.938Z,0.60
2023-03-25T04:23:23.320Z,0.70
2023-03-25T04:25:53.186Z,0.80
2023-03-25T04:28:23.864Z,0.50
2023-03-25T04:30:55.763Z,0.50
2023-03-25T04:33:23.286Z,0.70
2023-03-25T04:35:51.437Z,0.60
2023-03-25T04:38:19.385Z,0.60
2023-03-25T04:40:47.643Z,0.50
2023-03-25T04:43:15.186Z,0.50
2023-03-25T04:45:49.754Z,0.77
2023-03-25T04:48:21.750Z,0.67
2023-03-25T04:50:51.596Z,0.50
2023-03-25T04:53:19.010Z,0.80
2023-03-25T04:55:48.015Z,0.50
2023-03-25T04:58:15.772Z,0.80
2023-03-25T05:00:45.224Z,1.70
2023-03-25T05:03:12.709Z,1.30
2023-03-25T05:05:40.346Z,2.03
2023-03-25T05:08:08.216Z,1.93
2023-03-25T05:10:36.298Z,2.67
2023-03-25T05:13:04.446Z,1.00
2023-03-25T05:15:32.615Z,0.97
2023-03-25T05:18:01.910Z,0.70
2023-03-25T05:20:29.381Z,1.10
2023-03-25T05:22:58.165Z,0.73
2023-03-25T05:25:25.589Z,0.60
2023-03-25T05:27:54.349Z,0.70
2023-03-25T05:30:21.774Z,0.50
2023-03-25T05:32:50.773Z,0.70
2023-03-25T05:35:26.511Z,0.60
2023-03-25T05:37:54.019Z,0.80
2023-03-25T05:40:21.398Z,0.80
2023-03-25T05:42:49.640Z,0.50
2023-03-25T05:45:17.301Z,0.70
2023-03-25T05:47:44.883Z,0.60
2023-03-25T05:50:12.360Z,0.80
2023-03-25T05:52:41.802Z,0.63
2023-03-25T05:55:11.321Z,0.80
2023-03-25T05:57:38.697Z,0.73
2023-03-25T06:00:08.414Z,0.60
2023-03-25T06:02:39.594Z,0.60
2023-03-25T06:05:09.862Z,0.50
2023-03-25T06:07:37.473Z,0.70
2023-03-25T06:10:06.932Z,0.60
2023-03-25T06:12:38.655Z,0.70
2023-03-25T06:15:07.520Z,0.70
2023-03-25T06:17:38.464Z,0.70
2023-03-25T06:20:10.603Z,0.67
2023-03-25T06:22:38.652Z,0.50
2023-03-25T06:25:08.282Z,0.63
2023-03-25T06:27:40.295Z,0.70
2023-03-25T06:30:08.758Z,0.60
2023-03-25T06:32:36.394Z,0.80
2023-03-25T06:35:03.955Z,0.50
2023-03-25T06:37:31.357Z,0.50
2023-03-25T06:40:00.744Z,0.70
2023-03-25T06:42:30.993Z,0.70
2023-03-25T06:45:18.642Z,0.60
2023-03-25T06:47:57.655Z,0.73
2023-03-25T06:50:25.252Z,1.00
2023-03-25T06:52:52.663Z,1.00
2023-03-25T06:55:20.255Z,0.80
2023-03-25T06:57:49.027Z,0.80
2023-03-25T07:00:20.230Z,0.87
2023-03-25T07:02:47.645Z,0.80
2023-03-25T07:05:15.292Z,0.90
2023-03-25T07:07:42.811Z,0.80
2023-03-25T07:10:12.611Z,0.80
2023-03-25T07:12:40.254Z,1.00
2023-03-25T07:15:09.788Z,0.90
2023-03-25T07:17:40.690Z,0.83
2023-03-25T07:20:10.111Z,0.90
2023-03-25T07:22:39.204Z,0.80
2023-03-25T07:25:07.037Z,0.77
2023-03-25T07:27:34.436Z,0.80
2023-03-25T07:30:09.940Z,0.80
2023-03-25T07:32:37.352Z,0.90
2023-03-25T07:35:05.222Z,1.10
2023-03-25T07:37:32.622Z,0.90
2023-03-25T07:40:00.048Z,0.77
2023-03-25T07:42:27.855Z,0.60
2023-03-25T07:45:03.034Z,0.70
2023-03-25T07:47:32.991Z,0.80
2023-03-25T07:50:00.367Z,0.90
2023-03-25T07:52:27.743Z,0.73
2023-03-25T07:54:55.141Z,0.70
2023-03-25T07:57:22.657Z,0.80
2023-03-25T07:59:50.001Z,0.93
2023-03-25T08:02:17.447Z,1.07
2023-03-25T08:04:46.444Z,1.03
2023-03-25T08:07:13.836Z,0.80
2023-03-25T08:09:42.122Z,1.00
2023-03-25T08:12:09.656Z,0.93
2023-03-25T08:14:37.022Z,1.07
2023-03-25T08:17:05.832Z,1.10
2023-03-25T08:19:33.235Z,1.07
2023-03-25T08:22:02.287Z,1.00
2023-03-25T08:24:32.422Z,1.00
2023-03-25T08:27:00.821Z,1.03
2023-03-25T08:29:41.933Z,1.10
2023-03-25T08:32:09.379Z,1.10
2023-03-25T08:34:39.545Z,1.30
2023-03-25T08:37:08.375Z,1.13
2023-03-25T08:39:39.831Z,1.20
2023-03-25T08:42:07.776Z,1.13
2023-03-25T08:44:35.403Z,0.80
2023-03-25T08:47:02.844Z,1.00
2023-03-25T08:49:30.367Z,1.00
2023-03-25T08:51:59.028Z,1.40
2023-03-25T08:54:28.242Z,1.37
2023-03-25T08:56:55.852Z,1.20
2023-03-25T08:59:23.363Z,1.50
2023-03-25T09:01:50.976Z,1.00
2023-03-25T09:04:18.417Z,1.27
2023-03-25T09:06:47.604Z,1.07
2023-03-25T09:09:15.657Z,1.30
2023-03-25T09:11:44.668Z,1.10
2023-03-25T09:14:12.061Z,1.23
2023-03-25T09:16:39.510Z,1.10
2023-03-25T09:19:06.873Z,1.37
2023-03-25T09:21:34.240Z,1.20
2023-03-25T09:24:01.645Z,1.30
2023-03-25T09:26:29.044Z,1.27
2023-03-25T09:28:57.729Z,1.00
2023-03-25T09:31:26.037Z,1.10
2023-03-25T09:33:53.491Z,1.20
2023-03-25T09:36:20.869Z,1.30
2023-03-25T09:38:48.236Z,1.23
2023-03-25T09:41:26.110Z,1.17
2023-03-25T09:43:57.522Z,1.20
2023-03-25T09:46:26.406Z,1.20
2023-03-25T09:48:54.022Z,1.37
2023-03-25T09:51:22.880Z,1.07
2023-03-25T09:53:52.469Z,1.60
2023-03-25T09:56:22.059Z,1.63
2023-03-25T09:58:50.734Z,1.30
2023-03-25T10:01:28.923Z,1.23
2023-03-25T10:04:04.053Z,1.37
2023-03-25T10:06:31.756Z,1.03
2023-03-25T10:09:10.011Z,1.40
2023-03-25T10:11:40.333Z,1.30
2023-03-25T10:14:11.181Z,1.30
2023-03-25T10:16:46.236Z,1.20
2023-03-25T10:19:20.859Z,1.10
2023-03-25T10:21:51.291Z,1.20
2023-03-25T10:24:19.650Z,1.23
2023-03-25T10:26:48.475Z,1.40
2023-03-25T10:29:18.930Z,1.23
2023-03-25T10:31:50.361Z,1.30
2023-03-25T10:34:18.772Z,1.17
2023-03-25T10:36:49.174Z,1.17
2023-03-25T10:39:19.390Z,1.00
2023-03-25T10:41:48.556Z,1.00
2023-03-25T10:44:15.969Z,0.80
2023-03-25T10:46:47.913Z,0.97
2023-03-25T10:49:18.345Z,0.80
2023-03-25T10:51:46.468Z,0.70
2023-03-25T10:54:14.649Z,0.90
2023-03-25T10:56:44.897Z,0.80
2023-03-25T10:59:17.191Z,1.00
2023-03-25T11:01:45.998Z,0.80
2023-03-25T11:04:14.723Z,0.97
2023-03-25T11:06:46.732Z,0.93
2023-03-25T11:09:23.510Z,0.80
2023-03-25T11:11:50.985Z,1.00
2023-03-25T11:14:22.794Z,1.13
2023-03-25T11:16:52.899Z,1.43
2023-03-25T11:19:22.017Z,1.30
2023-03-25T11:21:55.428Z,1.73
2023-03-25T11:24:32.954Z,1.20
2023-03-25T11:27:01.698Z,0.97
2023-03-25T11:29:30.440Z,1.60
2023-03-25T11:31:59.367Z,1.90
2023-03-25T11:34:27.724Z,1.70
2023-03-25T11:37:00.643Z,1.50
2023-03-25T11:39:30.573Z,1.40
2023-03-25T11:41:58.625Z,1.40
2023-03-25T11:44:27.267Z,1.50
2023-03-25T11:46:56.378Z,1.40
2023-03-25T11:49:24.058Z,1.40
2023-03-25T11:51:52.883Z,1.20
2023-03-25T11:54:21.746Z,1.10
2023-03-25T11:56:49.869Z,1.10
2023-03-25T11:59:22.734Z,1.20
2023-03-25T12:01:50.825Z,1.10
2023-03-25T12:04:20.810Z,1.80
2023-03-25T12:06:57.189Z,0.90
2023-03-25T12:09:27.876Z,1.77
2023-03-25T12:12:07.650Z,1.37
2023-03-25T12:14:39.237Z,1.30
2023-03-25T12:17:11.442Z,1.90
2023-03-25T12:19:46.839Z,1.60
2023-03-25T12:22:21.668Z,1.50
2023-03-25T12:24:59.494Z,2.20
2023-03-25T12:27:34.572Z,1.33
2023-03-25T12:30:06.256Z,1.50
2023-03-25T12:32:37.670Z,1.20
2023-03-25T12:35:14.226Z,1.47
2023-03-25T12:37:49.895Z,1.20
2023-03-25T12:40:31.938Z,1.07
2023-03-25T12:43:03.803Z,1.20
2023-03-25T12:45:45.260Z,1.40
2023-03-25T12:48:20.006Z,1.53
2023-03-25T12:50:51.926Z,1.40
2023-03-25T12:53:24.142Z,1.67
2023-03-25T12:55:58.825Z,1.30
2023-03-25T12:58:36.194Z,1.13
2023-03-25T13:01:10.467Z,1.10
2023-03-25T13:03:44.692Z,1.10
2023-03-25T13:06:17.691Z,1.00
2023-03-25T13:08:48.039Z,1.10
2023-03-25T13:11:18.963Z,0.90
2023-03-25T13:13:46.958Z,1.00
2023-03-25T13:16:16.626Z,0.90
2023-03-25T13:18:46.346Z,1.00
2023-03-25T13:21:17.244Z,0.90
2023-03-25T13:23:45.997Z,1.07
2023-03-25T13:26:15.260Z,1.03
2023-03-25T13:28:46.740Z,1.00
2023-03-25T13:31:16.142Z,0.90
2023-03-25T13:33:46.734Z,0.80
2023-03-25T13:36:17.609Z,0.93
2023-03-25T13:38:49.314Z,1.00
2023-03-25T13:41:18.652Z,0.70
2023-03-25T13:43:50.258Z,0.80
2023-03-25T13:46:19.486Z,0.90
2023-03-25T13:48:50.365Z,0.70
2023-03-25T13:51:17.924Z,0.90
2023-03-25T13:53:47.388Z,0.90
2023-03-25T13:56:34.438Z,1.13
2023-03-25T13:59:10.957Z,0.77
2023-03-25T14:01:46.066Z,0.70
2023-03-25T14:04:23.098Z,0.90
2023-03-25T14:06:57.754Z,0.53
2023-03-25T14:09:49.266Z,0.70
2023-03-25T14:12:18.233Z,0.70
2023-03-25T14:14:48.586Z,0.70
2023-03-25T14:17:17.871Z,1.00
2023-03-25T14:19:49.108Z,0.87
2023-03-25T14:22:17.917Z,0.77
2023-03-25T14:24:46.696Z,0.70
2023-03-25T14:27:17.787Z,0.70
2023-03-25T14:29:48.113Z,0.90
2023-03-25T14:32:32.323Z,0.60
2023-03-25T14:35:29.916Z,0.83
2023-03-25T14:37:57.436Z,0.60
2023-03-25T14:43:21.187Z,0.60
2023-03-25T14:46:04.276Z,0.60
2023-03-25T14:48:34.446Z,0.50
2023-03-25T14:51:16.186Z,0.80
2023-03-25T14:53:50.895Z,0.60
2023-03-25T14:56:20.011Z,0.70
2023-03-25T14:58:51.955Z,0.73
2023-03-25T15:01:21.500Z,0.53
2023-03-25T15:03:50.669Z,0.73
2023-03-25T15:06:19.355Z,0.67
2023-03-25T15:08:52.896Z,0.50
2023-03-25T15:11:26.378Z,0.60
2023-03-25T15:13:57.919Z,0.43
2023-03-25T15:16:32.450Z,0.70
2023-03-25T15:19:04.888Z,0.63
2023-03-25T15:21:33.446Z,0.67
2023-03-25T15:24:04.570Z,0.40
2023-03-25T15:26:32.903Z,0.70
2023-03-25T15:29:08.683Z,0.80
2023-03-25T15:31:42.404Z,0.70
2023-03-25T15:34:15.396Z,0.70
2023-03-25T15:36:52.162Z,0.77
2023-03-25T15:39:26.122Z,0.60
2023-03-25T15:42:04.134Z,0.80
2023-03-25T15:44:53.036Z,0.60
2023-03-25T15:47:44.580Z,0.50
2023-03-25T15:50:46.250Z,0.73
2023-03-25T15:53:41.880Z,0.53
2023-03-25T15:56:12.125Z,0.60
2023-03-25T15:58:42.519Z,0.60
2023-03-25T16:01:15.648Z,0.80
2023-03-25T16:03:43.750Z,0.70
2023-03-25T16:06:14.472Z,0.80
2023-03-25T16:08:43.979Z,0.70
2023-03-25T16:11:15.543Z,0.80
2023-03-25T16:13:42.992Z,0.97
2023-03-25T16:16:11.174Z,0.70
2023-03-25T16:18:39.688Z,0.90
2023-03-25T16:21:07.355Z,0.90
2023-03-25T16:23:36.490Z,0.90
2023-03-25T16:26:06.020Z,0.90
2023-03-25T16:28:34.594Z,0.80
2023-03-25T16:31:03.592Z,1.20
2023-03-25T16:33:32.054Z,1.30
2023-03-25T16:36:00.864Z,1.00
2023-03-25T16:38:28.697Z,1.00
2023-03-25T16:41:00.818Z,1.30
2023-03-25T16:43:30.667Z,1.20
2023-03-25T16:45:59.360Z,0.80
2023-03-25T16:48:28.998Z,0.90
2023-03-25T16:50:56.803Z,1.20
2023-03-25T16:53:24.655Z,0.93
2023-03-25T16:55:57.641Z,0.80
2023-03-25T16:58:26.976Z,1.00
2023-03-25T17:00:56.542Z,0.80
2023-03-25T17:03:39.907Z,0.70
2023-03-25T17:06:10.336Z,0.80
2023-03-25T17:08:37.706Z,0.90
2023-03-25T17:11:06.021Z,0.70
2023-03-25T17:13:38.210Z,0.80
2023-03-25T17:16:08.715Z,0.80
2023-03-25T17:18:36.812Z,0.83
2023-03-25T17:21:09.911Z,0.90
2023-03-25T17:23:37.765Z,1.10
2023-03-25T17:26:07.565Z,1.00
2023-03-25T17:28:37.988Z,0.73
2023-03-25T17:31:19.339Z,0.80
2023-03-25T17:33:50.473Z,1.00
2023-03-25T17:36:18.440Z,0.80
2023-03-25T17:38:47.287Z,0.93
2023-03-25T17:41:15.831Z,1.67
2023-03-25T17:43:43.832Z,1.00
2023-03-25T17:46:11.588Z,0.90
2023-03-25T17:48:40.759Z,0.73
2023-03-25T17:51:08.835Z,0.90
2023-03-25T17:53:36.223Z,1.47
2023-03-25T17:56:05.836Z,1.03
2023-03-25T17:58:33.325Z,0.87
2023-03-25T18:01:01.424Z,1.10
2023-03-25T18:03:31.945Z,0.93
2023-03-25T18:06:00.870Z,0.80
2023-03-25T18:08:28.572Z,0.90
2023-03-25T18:10:56.437Z,0.90
2023-03-25T18:13:24.959Z,0.90
2023-03-25T18:15:52.663Z,0.80
2023-03-25T18:18:21.183Z,1.10
2023-03-25T18:20:49.688Z,0.93
2023-03-25T18:23:18.599Z,1.10
2023-03-25T18:25:46.325Z,1.20
2023-03-25T18:28:14.158Z,1.20
2023-03-25T18:30:44.136Z,1.00
2023-03-25T18:33:11.733Z,1.07
2023-03-25T18:35:39.259Z,1.07
2023-03-25T18:38:06.700Z,1.23
2023-03-25T18:40:36.686Z,1.30
2023-03-25T18:43:04.346Z,0.90
2023-03-25T18:45:32.126Z,1.17
2023-03-25T18:47:59.638Z,1.50
2023-03-25T18:50:28.638Z,1.20
2023-03-25T18:52:56.383Z,1.10
2023-03-25T18:55:24.277Z,1.20
2023-03-25T18:57:53.214Z,0.90
2023-03-25T19:00:23.724Z,2.10
2023-03-25T19:02:51.825Z,1.40
2023-03-25T19:05:19.585Z,1.10
2023-03-25T19:07:47.090Z,1.33
2023-03-25T19:10:18.733Z,1.07
2023-03-25T19:12:46.715Z,1.10
2023-03-25T19:15:17.023Z,1.20
2023-03-25T19:17:45.036Z,1.40
2023-03-25T19:20:17.278Z,1.10
2023-03-25T19:22:45.011Z,1.10
2023-03-25T19:25:12.734Z,1.10
2023-03-25T19:27:41.845Z,0.93
2023-03-25T19:30:10.732Z,1.00
2023-03-25T19:32:39.528Z,1.20
2023-03-25T19:35:07.512Z,0.93
2023-03-25T19:37:35.793Z,0.90
2023-03-25T19:40:08.207Z,1.43
2023-03-25T19:42:36.226Z,1.20
2023-03-25T19:45:04.192Z,1.40
2023-03-25T19:47:31.597Z,1.00
2023-03-25T19:50:00.501Z,1.37
2023-03-25T19:52:27.863Z,2.23
2023-03-25T19:54:55.257Z,1.40
2023-03-25T19:57:22.620Z,1.20
2023-03-25T19:59:49.967Z,1.23
2023-03-25T20:02:17.374Z,1.10
2023-03-25T20:04:45.285Z,1.53
2023-03-25T20:07:14.053Z,1.10
2023-03-25T20:09:43.534Z,1.10
2023-03-25T20:12:10.935Z,1.47
2023-03-25T20:14:38.412Z,1.27
2023-03-25T20:17:06.146Z,1.20
2023-03-25T20:19:34.482Z,1.30
2023-03-25T20:22:03.382Z,5.50
2023-03-25T20:24:34.636Z,3.60
2023-03-25T20:27:02.049Z,1.50
2023-03-25T20:29:29.418Z,1.40
2023-03-25T20:31:58.409Z,1.57
2023-03-25T20:34:25.784Z,1.40
2023-03-25T20:36:54.246Z,2.43
2023-03-25T20:39:22.935Z,1.27
2023-03-25T20:41:51.803Z,1.50
2023-03-25T20:44:19.214Z,1.20
2023-03-25T20:46:47.096Z,1.23
2023-03-25T20:49:15.497Z,1.10
2023-03-25T20:51:43.383Z,1.37
2023-03-25T20:54:10.892Z,1.10
2023-03-25T20:56:38.705Z,1.10
2023-03-25T20:59:09.043Z,1.33
2023-03-25T21:01:36.651Z,1.53
2023-03-25T21:04:06.074Z,1.63
2023-03-25T21:06:34.258Z,1.60
2023-03-25T21:09:07.075Z,1.63
2023-03-25T21:11:35.062Z,2.00
2023-03-25T21:14:02.442Z,1.60
2023-03-25T21:16:31.903Z,1.30
2023-03-25T21:19:01.781Z,1.70
2023-03-25T21:21:29.267Z,2.30
2023-03-25T21:23:56.948Z,2.00
2023-03-25T21:26:24.637Z,1.40
2023-03-25T21:28:52.936Z,1.63
2023-03-25T21:31:22.026Z,1.40
2023-03-25T21:33:52.501Z,1.57
2023-03-25T21:36:20.736Z,1.20
2023-03-25T21:38:48.420Z,1.47
2023-03-25T21:41:15.883Z,1.30
2023-03-25T21:43:44.130Z,1.43
2023-03-25T21:46:11.592Z,1.50
2023-03-25T21:48:39.361Z,1.60
2023-03-25T21:51:12.061Z,1.63
2023-03-25T21:53:43.556Z,1.50
2023-03-25T21:56:11.813Z,1.30
2023-03-25T21:58:40.680Z,1.63
2023-03-25T22:01:10.211Z,1.47
2023-03-25T22:03:38.207Z,1.50
2023-03-25T22:06:06.424Z,1.27
2023-03-25T22:08:35.407Z,1.40
2023-03-25T22:11:03.618Z,1.20
2023-03-25T22:13:31.041Z,1.30
2023-03-25T22:15:58.668Z,1.50
2023-03-25T22:18:26.569Z,1.03
2023-03-25T22:20:53.977Z,1.30
2023-03-25T22:23:21.973Z,1.40
2023-03-25T22:25:50.746Z,1.37
2023-03-25T22:28:18.125Z,1.30
2023-03-25T22:30:45.729Z,1.10
2023-03-25T22:33:13.115Z,1.67
2023-03-25T22:35:40.948Z,1.27
2023-03-25T22:38:08.344Z,1.47
2023-03-25T22:40:36.209Z,1.17
2023-03-25T22:43:04.981Z,1.20
2023-03-25T22:45:32.431Z,1.20
2023-03-25T22:47:59.854Z,1.57
2023-03-25T22:50:27.274Z,1.10
2023-03-25T22:52:54.674Z,1.30
2023-03-25T22:55:22.088Z,1.67
2023-03-25T22:57:49.519Z,1.20
2023-03-25T23:00:18.562Z,1.27
2023-03-25T23:02:47.780Z,1.03
2023-03-25T23:05:18.317Z,1.50
2023-03-25T23:07:45.782Z,1.13
2023-03-25T23:10:15.844Z,1.27
2023-03-25T23:12:43.268Z,1.20
2023-03-25T23:15:11.008Z,1.10
2023-03-25T23:17:46.825Z,1.73
2023-03-25T23:20:14.384Z,1.30
2023-03-25T23:22:41.772Z,1.60
2023-03-25T23:25:09.770Z,1.00
2023-03-25T23:27:37.205Z,1.27
2023-03-25T23:30:05.161Z,1.30
2023-03-25T23:32:33.953Z,1.30
2023-03-25T23:35:03.194Z,1.27
2023-03-25T23:37:31.263Z,1.20
2023-03-25T23:39:58.631Z,1.40
2023-03-25T23:42:34.902Z,1.20
2023-03-25T23:45:03.384Z,1.40
2023-03-25T23:47:30.816Z,1.37
2023-03-25T23:50:01.862Z,1.37
2023-03-25T23:52:30.767Z,1.30
2023-03-25T23:54:58.134Z,1.23
2023-03-25T23:57:25.744Z,1.10
2023-03-25T23:59:53.155Z,1.27
